Time;durP1;ratioP1;P1;durP2;ratioP2;P2;SDS_P1;SDS_P2;PMS_P1;PMS_P2;Temp;Humidity;BMP_temperature;BMP_pressure;BME280_temperature;BME280_humidity;BME280_pressure;Samples;Min_cycle;Max_cycle;Signal;HPM_P1;HPM_P2
2022/09/05 00:02:33;;;;;;;0.00;0.00;;;17.10;99.90;226.50;231333.00;;;;5035057;28;20187;-72
2022/09/05 00:05:24;;;;;;;0.00;0.00;;;17.20;99.90;226.50;231333.00;;;;5006213;28;20195;-71
2022/09/05 00:08:05;;;;;;;0.00;0.00;;;16.90;99.90;226.50;231333.00;;;;5014796;28;20530;-71
2022/09/05 00:10:48;;;;;;;0.00;0.00;;;16.80;99.90;226.50;231333.00;;;;5020730;28;20210;-71
2022/09/05 00:13:42;;;;;;;0.00;0.00;;;16.90;99.90;226.50;231333.00;;;;5034830;28;20527;-71
2022/09/05 00:16:54;;;;;;;0.00;0.00;;;17.00;99.90;226.50;231333.00;;;;5034724;28;20587;-71
2022/09/05 00:19:37;;;;;;;0.00;0.00;;;16.80;99.90;226.50;231333.00;;;;5018671;28;20207;-72
2022/09/05 00:22:55;;;;;;;0.00;0.00;;;16.70;99.90;226.50;231333.00;;;;5016182;28;20564;-71
2022/09/05 00:26:07;;;;;;;0.00;0.00;;;16.60;99.90;226.50;231333.00;;;;5021430;28;20212;-70
2022/09/05 00:28:50;;;;;;;0.00;0.00;;;16.70;99.90;226.50;231333.00;;;;5007165;28;20667;-71
2022/09/05 00:31:43;;;;;;;0.10;0.10;;;16.50;99.90;226.50;231333.00;;;;5014036;28;20216;-71
2022/09/05 00:35:02;;;;;;;0.00;0.00;;;16.50;99.90;226.50;231333.00;;;;5026248;28;20195;-70
2022/09/05 00:37:36;;;;;;;0.00;0.00;;;16.20;99.90;226.50;231333.00;;;;5015926;28;20233;-70
2022/09/05 00:40:25;;;;;;;0.00;0.00;;;16.10;99.90;226.50;231333.00;;;;4996016;28;20231;-70
2022/09/05 00:43:01;;;;;;;0.00;0.00;;;16.20;99.90;226.50;231333.00;;;;5019061;28;20210;-71
2022/09/05 00:45:38;;;;;;;0.00;0.00;;;16.10;99.90;226.50;231333.00;;;;5014300;28;20939;-70
2022/09/05 00:48:21;;;;;;;0.00;0.00;;;16.20;99.90;226.50;231333.00;;;;5016759;28;20198;-71
2022/09/05 00:51:19;;;;;;;0.00;0.00;;;16.10;99.90;226.50;231333.00;;;;5014290;28;20221;-71
2022/09/05 00:54:24;;;;;;;0.00;0.00;;;16.10;99.90;226.50;231333.00;;;;5014310;28;20336;-71
2022/09/05 00:57:45;;;;;;;0.00;0.00;;;16.10;99.90;226.50;231333.00;;;;5014192;28;20678;-71
2022/09/05 01:00:18;;;;;;;0.00;0.00;;;16.00;99.90;226.50;231333.00;;;;5001929;28;20237;-70
2022/09/05 01:03:30;;;;;;;0.00;0.00;;;16.10;99.90;226.50;231333.00;;;;5034160;28;20554;-71
2022/09/05 01:06:29;;;;;;;0.00;0.00;;;16.00;99.90;226.50;231333.00;;;;5033864;28;20570;-70
2022/09/05 01:09:36;;;;;;;0.00;0.00;;;15.90;99.90;226.50;231333.00;;;;5019507;28;20207;-70
2022/09/05 01:12:28;;;;;;;0.00;0.00;;;15.90;99.90;226.50;231333.00;;;;5012916;28;20199;-71
2022/09/05 01:15:20;;;;;;;0.10;0.10;;;16.10;99.90;226.50;231333.00;;;;5014531;28;20295;-71
2022/09/05 01:18:31;;;;;;;0.00;0.00;;;16.10;99.90;226.50;231333.00;;;;5000622;28;20707;-71
2022/09/05 01:21:39;;;;;;;0.00;0.00;;;16.20;99.90;226.50;231333.00;;;;5008849;28;20228;-71
2022/09/05 01:25:10;;;;;;;0.00;0.00;;;16.30;99.90;226.50;231333.00;;;;5020123;28;20199;-71
2022/09/05 01:28:03;;;;;;;0.00;0.00;;;16.00;99.90;226.50;231333.00;;;;4934505;29;20241;-71
2022/09/05 01:31:04;;;;;;;0.00;0.00;;;15.90;99.90;226.50;231333.00;;;;5014293;28;20244;-70
2022/09/05 01:33:43;;;;;;;0.00;0.00;;;15.90;99.90;226.50;231333.00;;;;5014686;28;20196;-71
2022/09/05 01:36:29;;;;;;;0.00;0.00;;;15.90;99.90;226.50;231333.00;;;;5014686;28;20216;-70
2022/09/05 01:39:11;;;;;;;0.00;0.00;;;15.80;99.90;226.50;231333.00;;;;5029394;28;20195;-70
2022/09/05 01:42:18;;;;;;;0.00;0.00;;;15.80;99.90;226.50;231333.00;;;;5032594;28;20195;-70
2022/09/05 01:44:59;;;;;;;0.00;0.00;;;15.60;99.90;226.50;231333.00;;;;5033145;28;20999;-70
2022/09/05 01:47:45;;;;;;;0.00;0.00;;;15.50;99.90;226.50;231333.00;;;;5029511;28;20205;-70
2022/09/05 01:50:39;;;;;;;0.00;0.00;;;15.50;99.90;226.50;231333.00;;;;5013112;28;20218;-71
2022/09/05 01:53:25;;;;;;;0.10;0.10;;;15.50;99.90;226.50;231333.00;;;;5026680;28;20195;-71
2022/09/05 01:56:38;;;;;;;0.00;0.00;;;15.50;99.90;226.50;231333.00;;;;5032840;28;20191;-70
2022/09/05 01:59:26;;;;;;;0.00;0.00;;;15.50;99.90;226.50;231333.00;;;;5017128;28;20214;-70
2022/09/05 02:02:20;;;;;;;0.00;0.00;;;15.60;99.90;226.50;231333.00;;;;5012886;28;20563;-70
2022/09/05 02:05:18;;;;;;;0.00;0.00;;;15.60;99.90;226.50;231333.00;;;;5013041;28;20203;-70
2022/09/05 02:08:33;;;;;;;0.00;0.00;;;15.60;99.90;226.50;231333.00;;;;5020127;28;20203;-70
2022/09/05 02:11:07;;;;;;;0.10;0.10;;;15.50;99.90;226.50;231333.00;;;;5015683;28;20229;-70
2022/09/05 02:13:58;;;;;;;0.00;0.00;;;15.50;99.90;226.50;231333.00;;;;5012849;28;20188;-70
2022/09/05 02:16:42;;;;;;;0.10;0.10;;;15.70;99.90;226.50;231333.00;;;;5012667;28;20239;-70
2022/09/05 02:19:23;;;;;;;0.10;0.10;;;15.80;99.90;226.50;231333.00;;;;5027737;28;20304;-71
2022/09/05 02:22:01;;;;;;;0.00;0.00;;;15.80;99.90;226.50;231333.00;;;;5024211;28;20206;-71
2022/09/05 02:24:41;;;;;;;0.00;0.00;;;16.00;99.90;226.50;231333.00;;;;5036759;28;20202;-71
2022/09/05 02:27:31;;;;;;;0.00;0.00;;;16.00;99.90;226.50;231333.00;;;;5032283;28;20202;-71
2022/09/05 02:30:25;;;;;;;0.00;0.00;;;16.10;99.90;226.50;231333.00;;;;5011309;28;20254;-70
2022/09/05 02:33:11;;;;;;;0.00;0.00;;;16.10;99.90;226.50;231333.00;;;;5027023;28;20210;-70
2022/09/05 02:35:52;;;;;;;0.00;0.00;;;16.10;99.90;226.50;231333.00;;;;5012585;28;20191;-71
2022/09/05 02:38:30;;;;;;;0.00;0.00;;;16.20;99.90;226.50;231333.00;;;;5021575;28;20210;-71
2022/09/05 02:41:32;;;;;;;0.00;0.00;;;16.10;99.90;226.50;231333.00;;;;5029659;28;20261;-71
2022/09/05 02:44:30;;;;;;;0.10;0.10;;;16.00;99.90;226.50;231333.00;;;;5029636;28;20213;-71
2022/09/05 02:47:28;;;;;;;0.00;0.00;;;15.80;99.90;226.50;231333.00;;;;5013277;28;20216;-71
2022/09/05 02:50:22;;;;;;;0.00;0.00;;;15.90;99.90;226.50;231333.00;;;;5030410;28;20725;-71
2022/09/05 02:53:18;;;;;;;0.10;0.10;;;15.80;99.90;226.50;231333.00;;;;5029706;28;20201;-71
2022/09/05 02:56:30;;;;;;;0.00;0.00;;;15.90;99.90;226.50;231333.00;;;;5019921;28;20219;-71
2022/09/05 02:59:42;;;;;;;0.00;0.00;;;15.90;99.90;226.50;231333.00;;;;5030454;28;20267;-71
2022/09/05 03:02:25;;;;;;;0.00;0.00;;;16.00;99.90;226.50;231333.00;;;;5021692;28;20196;-71
2022/09/05 03:05:05;;;;;;;0.00;0.00;;;15.80;99.90;226.50;231333.00;;;;5013696;28;20198;-71
2022/09/05 03:08:19;;;;;;;0.00;0.00;;;15.90;99.90;226.50;231333.00;;;;5009277;28;20199;-71
2022/09/05 03:11:43;;;;;;;0.00;0.00;;;15.60;99.90;226.50;231333.00;;;;5005779;28;20235;-71
2022/09/05 03:15:07;;;;;;;0.00;0.00;;;15.50;99.90;226.50;231333.00;;;;5018309;28;20210;-71
2022/09/05 03:18:32;;;;;;;0.00;0.00;;;15.50;99.90;226.50;231333.00;;;;5011486;28;20242;-71
2022/09/05 03:21:48;;;;;;;0.00;0.00;;;15.60;99.90;226.50;231333.00;;;;4993514;28;20219;-70
2022/09/05 03:25:05;;;;;;;0.00;0.00;;;15.70;99.90;226.50;231333.00;;;;5011441;28;20217;-71
2022/09/05 03:28:35;;;;;;;0.00;0.00;;;15.40;99.90;226.50;231333.00;;;;4981505;28;20590;-70
2022/09/05 03:31:43;;;;;;;0.00;0.00;;;15.30;99.90;226.50;231333.00;;;;5017839;28;20222;-71
2022/09/05 03:34:47;;;;;;;0.00;0.00;;;15.40;99.90;226.50;231333.00;;;;5031620;28;20206;-71
2022/09/05 03:37:51;;;;;;;0.10;0.10;;;15.10;99.90;226.50;231333.00;;;;5017903;28;20215;-70
2022/09/05 03:40:48;;;;;;;0.00;0.00;;;15.10;99.90;226.50;231333.00;;;;5024299;28;20237;-70
2022/09/05 03:43:53;;;;;;;0.10;0.10;;;15.00;99.90;226.50;231333.00;;;;5016803;28;20294;-71
2022/09/05 03:47:01;;;;;;;0.00;0.00;;;15.20;99.90;226.50;231333.00;;;;5007670;28;20199;-70
2022/09/05 03:50:04;;;;;;;0.10;0.10;;;15.20;99.90;226.50;231333.00;;;;5023323;28;20222;-69
2022/09/05 03:53:27;;;;;;;0.10;0.10;;;15.30;99.90;226.50;231333.00;;;;5027866;28;20207;-70
2022/09/05 03:56:41;;;;;;;0.00;0.00;;;15.30;99.90;226.50;231333.00;;;;5015807;28;20212;-73
2022/09/05 04:00:08;;;;;;;0.10;0.10;;;15.30;99.90;226.50;231333.00;;;;5018539;28;20208;-70
2022/09/05 04:02:50;;;;;;;0.00;0.00;;;15.10;99.90;226.50;231333.00;;;;5003372;28;20219;-70
2022/09/05 04:05:46;;;;;;;0.00;0.00;;;15.00;99.90;226.50;231333.00;;;;5016977;28;20186;-73
2022/09/05 04:08:50;;;;;;;0.00;0.00;;;15.00;99.90;226.50;231333.00;;;;5021418;28;20961;-70
2022/09/05 04:11:36;;;;;;;0.10;0.10;;;15.00;99.90;226.50;231333.00;;;;5014753;28;20229;-71
2022/09/05 04:14:12;;;;;;;0.10;0.10;;;15.00;99.90;226.50;231333.00;;;;5026650;28;20198;-71
2022/09/05 04:16:54;;;;;;;0.10;0.10;;;15.00;99.90;226.50;231333.00;;;;5022714;28;20662;-71
2022/09/05 04:19:34;;;;;;;0.10;0.10;;;15.00;99.90;226.50;231333.00;;;;4997657;28;20195;-71
2022/09/05 04:22:19;;;;;;;0.00;0.00;;;15.00;99.90;226.50;231333.00;;;;5024340;28;20199;-70
2022/09/05 04:25:02;;;;;;;0.08;0.08;;;15.10;99.90;226.50;231333.00;;;;5013277;28;20207;-72
2022/09/05 04:27:47;;;;;;;0.00;0.00;;;15.10;99.90;226.50;231333.00;;;;5014261;28;20207;-71
2022/09/05 04:30:39;;;;;;;0.10;0.10;;;15.20;99.90;226.50;231333.00;;;;5014404;28;20215;-71
2022/09/05 04:33:23;;;;;;;0.10;0.10;;;15.20;99.90;226.50;231333.00;;;;5016865;28;20725;-71
2022/09/05 04:36:22;;;;;;;0.10;0.10;;;15.10;99.90;226.50;231333.00;;;;5014201;28;20196;-70
2022/09/05 04:39:25;;;;;;;0.00;0.00;;;15.10;99.90;226.50;231333.00;;;;5024143;28;20229;-69
2022/09/05 04:42:08;;;;;;;0.00;0.00;;;15.00;99.90;226.50;231333.00;;;;5033983;28;20206;-72
2022/09/05 04:44:46;;;;;;;0.00;0.00;;;14.90;99.90;226.50;231333.00;;;;4997686;28;20210;-72
2022/09/05 04:47:23;;;;;;;0.00;0.00;;;14.80;99.90;226.50;231333.00;;;;5015721;28;20287;-72
2022/09/05 04:50:03;;;;;;;0.05;0.05;;;14.80;99.90;226.50;231333.00;;;;5015672;28;20250;-72
2022/09/05 04:53:05;;;;;;;0.00;0.00;;;14.80;99.90;226.50;231333.00;;;;5014314;28;20200;-71
2022/09/05 04:55:43;;;;;;;0.10;0.10;;;14.70;99.90;226.50;231333.00;;;;5014339;28;20224;-72
2022/09/05 04:58:31;;;;;;;0.10;0.10;;;14.70;99.90;226.50;231333.00;;;;4996456;28;20216;-72
2022/09/05 05:01:27;;;;;;;0.00;0.00;;;14.80;99.90;226.50;231333.00;;;;5013871;28;20245;-72
2022/09/05 05:04:24;;;;;;;0.10;0.10;;;14.70;99.90;226.50;231333.00;;;;4995222;28;20287;-71
2022/09/05 05:07:25;;;;;;;0.10;0.10;;;14.80;99.90;226.50;231333.00;;;;4995363;28;20196;-71
2022/09/05 05:09:59;;;;;;;0.00;0.00;;;14.90;99.90;226.50;231333.00;;;;5013032;28;20223;-71
2022/09/05 05:13:08;;;;;;;0.00;0.00;;;14.80;99.90;226.50;231333.00;;;;5026441;28;20199;-71
2022/09/05 05:16:06;;;;;;;0.00;0.00;;;14.80;99.90;226.50;231333.00;;;;5013775;28;20213;-72
2022/09/05 05:19:06;;;;;;;0.00;0.00;;;14.90;99.90;226.50;231333.00;;;;5031311;28;20234;-71
2022/09/05 05:21:54;;;;;;;0.10;0.10;;;14.80;99.90;226.50;231333.00;;;;5033455;28;20202;-72
2022/09/05 05:24:30;;;;;;;0.00;0.00;;;14.80;99.90;226.50;231333.00;;;;5033280;28;20190;-72
2022/09/05 05:27:09;;;;;;;0.10;0.10;;;14.80;99.90;226.50;231333.00;;;;5033842;28;20657;-72
2022/09/05 05:29:48;;;;;;;0.00;0.00;;;14.90;99.90;226.50;231333.00;;;;5014866;28;20238;-74
2022/09/05 05:32:24;;;;;;;0.00;0.00;;;14.90;99.90;226.50;231333.00;;;;5033192;28;20202;-73
2022/09/05 05:35:20;;;;;;;0.00;0.00;;;14.90;99.90;226.50;231333.00;;;;5033005;28;20187;-73
2022/09/05 05:38:08;;;;;;;0.10;0.10;;;15.00;99.90;226.50;231333.00;;;;5015198;28;20697;-72
2022/09/05 05:40:50;;;;;;;0.00;0.00;;;15.00;99.90;226.50;231333.00;;;;5033710;23;20239;-74
2022/09/05 05:43:26;;;;;;;0.03;0.03;;;15.20;99.90;226.50;231333.00;;;;5013429;28;20204;-75
2022/09/05 05:46:00;;;;;;;0.00;0.00;;;15.30;99.90;226.50;231333.00;;;;5013379;28;20199;-75
2022/09/05 05:48:39;;;;;;;0.00;0.00;;;15.30;99.90;226.50;231333.00;;;;5012265;28;20756;-76
2022/09/05 05:51:41;;;;;;;0.00;0.00;;;15.20;99.90;226.50;231333.00;;;;5013555;28;20294;-75
2022/09/05 05:54:42;;;;;;;0.00;0.00;;;15.30;99.90;226.50;231333.00;;;;5014303;28;20254;-74
2022/09/05 05:57:48;;;;;;;0.05;0.05;;;15.40;99.90;226.50;231333.00;;;;5012540;28;20195;-75
2022/09/05 06:00:23;;;;;;;0.00;0.00;;;15.50;99.90;226.50;231333.00;;;;5012767;28;20207;-74
2022/09/05 06:03:44;;;;;;;0.00;0.00;;;15.60;99.90;226.50;231333.00;;;;5013080;28;20223;-75
2022/09/05 06:06:31;;;;;;;0.00;0.00;;;15.70;99.90;226.50;231333.00;;;;5013060;28;20246;-77
2022/09/05 06:10:09;;;;;;;0.00;0.00;;;15.80;99.90;226.50;231333.00;;;;5013047;28;20203;-75
2022/09/05 06:13:57;;;;;;;0.00;0.00;;;15.90;99.90;226.50;231333.00;;;;4975325;28;20207;-75
2022/09/05 06:17:25;;;;;;;0.00;0.00;;;16.00;99.90;226.50;231333.00;;;;5011640;28;20191;-76
2022/09/05 06:21:00;;;;;;;0.03;0.03;;;16.10;99.90;226.50;231333.00;;;;5012896;28;20224;-76
2022/09/05 06:24:35;;;;;;;0.00;0.00;;;16.20;99.90;226.50;231333.00;;;;4999402;28;20207;-75
2022/09/05 06:27:48;;;;;;;0.00;0.00;;;16.40;99.90;226.50;231333.00;;;;5012887;28;20212;-76
2022/09/05 06:30:50;;;;;;;0.00;0.00;;;16.50;99.90;226.50;231333.00;;;;5003621;28;20231;-75
2022/09/05 06:33:58;;;;;;;0.00;0.00;;;16.50;99.90;226.50;231333.00;;;;5012505;28;20210;-74
2022/09/05 06:36:54;;;;;;;0.00;0.00;;;16.60;99.90;226.50;231333.00;;;;5012198;28;20207;-76
2022/09/05 06:39:52;;;;;;;0.00;0.00;;;16.70;99.90;226.50;231333.00;;;;5012532;28;20222;-76
2022/09/05 06:42:32;;;;;;;0.00;0.00;;;16.80;99.90;226.50;231333.00;;;;5012295;28;20230;-76
2022/09/05 06:45:58;;;;;;;0.00;0.00;;;16.90;99.90;226.50;231333.00;;;;5012696;28;20199;-75
2022/09/05 06:48:32;;;;;;;0.00;0.00;;;17.00;99.90;226.50;231333.00;;;;4989924;28;20224;-77
2022/09/05 06:51:56;;;;;;;0.00;0.00;;;17.10;99.90;226.50;231333.00;;;;5002752;28;20283;-76
2022/09/05 06:55:29;;;;;;;0.00;0.00;;;17.20;99.90;226.50;231333.00;;;;5023437;28;20210;-75
2022/09/05 06:58:38;;;;;;;0.00;0.00;;;17.40;99.90;226.50;231333.00;;;;5002665;28;20568;-75
2022/09/05 07:01:12;;;;;;;0.00;0.00;;;17.50;99.90;226.50;231333.00;;;;4992499;28;20227;-75
2022/09/05 07:04:18;;;;;;;0.00;0.00;;;17.60;99.90;226.50;231333.00;;;;4992485;28;20196;-75
2022/09/05 07:07:21;;;;;;;0.00;0.00;;;17.70;99.90;226.50;231333.00;;;;4991848;28;20259;-75
2022/09/05 07:10:02;;;;;;;0.00;0.00;;;17.80;99.90;226.50;231333.00;;;;4993950;28;20211;-75
2022/09/05 07:12:56;;;;;;;0.00;0.00;;;17.90;99.90;226.50;231333.00;;;;5011236;28;20576;-75
2022/09/05 07:15:41;;;;;;;0.00;0.00;;;18.00;99.90;226.50;231333.00;;;;5011557;28;20207;-75
2022/09/05 07:18:25;;;;;;;0.00;0.00;;;18.10;99.90;226.50;231333.00;;;;5011530;28;20206;-75
2022/09/05 07:21:01;;;;;;;0.00;0.00;;;18.10;99.90;226.50;231333.00;;;;5011818;28;20732;-74
2022/09/05 07:24:00;;;;;;;0.00;0.00;;;18.20;99.90;226.50;231333.00;;;;5012321;28;20199;-74
2022/09/05 07:26:46;;;;;;;0.00;0.00;;;18.30;99.90;226.50;231333.00;;;;5011964;28;20199;-76
2022/09/05 07:29:31;;;;;;;0.00;0.00;;;18.30;99.90;226.50;231333.00;;;;5011362;28;20203;-76
2022/09/05 07:32:06;;;;;;;0.00;0.00;;;18.40;99.90;226.50;231333.00;;;;5020824;28;20202;-76
2022/09/05 07:34:40;;;;;;;0.00;0.00;;;18.50;99.90;226.50;231333.00;;;;5011283;28;20204;-75
2022/09/05 07:37:17;;;;;;;0.00;0.00;;;18.70;99.90;226.50;231333.00;;;;5012404;28;20222;-75
2022/09/05 07:39:53;;;;;;;0.00;0.00;;;18.80;99.90;226.50;231333.00;;;;4992504;28;20239;-75
2022/09/05 07:42:32;;;;;;;0.00;0.00;;;18.90;99.90;226.50;231333.00;;;;4997120;28;20306;-75
2022/09/05 07:45:10;;;;;;;0.00;0.00;;;19.00;99.90;226.50;231333.00;;;;5011646;28;20188;-75
2022/09/05 07:47:48;;;;;;;0.00;0.00;;;19.10;99.90;226.50;231333.00;;;;5012158;28;20195;-74
2022/09/05 07:50:20;;;;;;;0.00;0.00;;;19.30;99.90;226.50;231333.00;;;;5011376;28;20639;-76
2022/09/05 07:53:13;;;;;;;0.00;0.00;;;19.40;99.90;226.50;231333.00;;;;5011220;28;20543;-75
2022/09/05 07:56:05;;;;;;;0.00;0.00;;;19.60;99.90;226.50;231333.00;;;;5009928;28;20198;-74
2022/09/05 07:58:57;;;;;;;0.00;0.00;;;19.70;99.90;226.50;231333.00;;;;4994532;28;20212;-75
2022/09/05 08:01:28;;;;;;;0.00;0.00;;;19.80;99.90;226.50;231333.00;;;;5010576;28;20220;-74
2022/09/05 08:04:02;;;;;;;0.00;0.00;;;20.00;99.90;226.50;231333.00;;;;5013272;28;20628;-74
2022/09/05 08:06:39;;;;;;;0.00;0.00;;;20.00;99.90;226.50;231333.00;;;;5020052;28;20216;-75
2022/09/05 08:09:35;;;;;;;0.00;0.00;;;20.20;99.90;226.50;231333.00;;;;5022910;28;20306;-75
2022/09/05 08:12:32;;;;;;;0.00;0.00;;;20.20;99.90;226.50;231333.00;;;;5027927;28;20192;-75
2022/09/05 08:15:26;;;;;;;0.00;0.00;;;20.40;99.90;226.50;231333.00;;;;5018524;28;20701;-74
2022/09/05 08:18:23;;;;;;;0.00;0.00;;;20.60;99.90;226.50;231333.00;;;;5014440;28;20666;-75
2022/09/05 08:21:03;;;;;;;0.00;0.00;;;20.70;99.90;226.50;231333.00;;;;5015291;28;20227;-76
2022/09/05 08:23:54;;;;;;;0.00;0.00;;;20.70;99.90;226.50;231333.00;;;;5015632;28;20204;-76
2022/09/05 08:26:37;;;;;;;0.00;0.00;;;20.90;99.90;226.50;231333.00;;;;5014720;28;20202;-75
2022/09/05 08:29:16;;;;;;;0.00;0.00;;;20.90;99.90;226.50;231333.00;;;;5000365;28;20201;-75
2022/09/05 08:31:54;;;;;;;0.00;0.00;;;21.00;99.90;226.50;231333.00;;;;5014445;28;20223;-75
2022/09/05 08:34:35;;;;;;;0.00;0.00;;;21.20;99.90;226.50;231333.00;;;;5014917;28;20207;-75
2022/09/05 08:37:20;;;;;;;0.00;0.00;;;21.30;99.90;226.50;231333.00;;;;5003601;28;20702;-75
2022/09/05 08:39:58;;;;;;;0.00;0.00;;;21.40;99.90;226.50;231333.00;;;;5006280;28;20247;-74
2022/09/05 08:42:55;;;;;;;0.00;0.00;;;21.50;99.90;226.50;231333.00;;;;5002586;28;20554;-74
2022/09/05 08:45:57;;;;;;;0.00;0.00;;;21.60;99.90;226.50;231333.00;;;;4996863;28;20200;-74
2022/09/05 08:49:35;;;;;;;0.00;0.00;;;21.80;99.90;226.50;231333.00;;;;4994615;28;20192;-75
2022/09/05 08:52:21;;;;;;;0.00;0.00;;;21.90;99.90;226.50;231333.00;;;;4994536;28;20239;-75
2022/09/05 08:55:08;;;;;;;0.00;0.00;;;22.00;99.90;226.50;231333.00;;;;4994940;28;20678;-75
2022/09/05 08:58:07;;;;;;;0.00;0.00;;;22.10;99.90;226.50;231333.00;;;;4995702;28;20200;-75
2022/09/05 09:00:54;;;;;;;0.00;0.00;;;22.20;99.90;226.50;231333.00;;;;4994495;28;20220;-74
2022/09/05 09:03:40;;;;;;;0.00;0.00;;;22.20;99.90;226.50;231333.00;;;;4993716;28;20197;-76
2022/09/05 09:06:46;;;;;;;0.00;0.00;;;22.30;99.90;226.50;231333.00;;;;4994536;28;20788;-76
2022/09/05 09:09:47;;;;;;;0.00;0.00;;;22.40;99.90;226.50;231333.00;;;;5013469;28;20199;-73
2022/09/05 09:13:05;;;;;;;0.00;0.00;;;22.40;99.90;226.50;231333.00;;;;5002776;28;20215;-74
2022/09/05 09:15:43;;;;;;;0.00;0.00;;;22.50;99.90;226.50;231333.00;;;;4993928;28;20207;-74
2022/09/05 09:18:18;;;;;;;0.00;0.00;;;22.50;99.90;226.50;231333.00;;;;4993809;28;20242;-75
2022/09/05 09:20:56;;;;;;;0.00;0.00;;;22.60;99.90;226.50;231333.00;;;;4993506;28;20215;-75
2022/09/05 09:23:48;;;;;;;0.00;0.00;;;22.70;99.90;226.50;231333.00;;;;4993274;28;20199;-75
2022/09/05 09:26:23;;;;;;;0.00;0.00;;;22.80;99.90;226.50;231333.00;;;;4993466;28;20196;-76
2022/09/05 09:29:07;;;;;;;0.00;0.00;;;22.80;99.90;226.50;231333.00;;;;5002284;28;20211;-74
2022/09/05 09:31:59;;;;;;;0.00;0.00;;;22.90;99.90;226.50;231333.00;;;;5013887;28;20235;-75
2022/09/05 09:34:54;;;;;;;0.00;0.00;;;23.00;99.90;226.50;231333.00;;;;5013235;28;20258;-74
2022/09/05 09:38:16;;;;;;;0.00;0.00;;;23.10;99.90;226.50;231333.00;;;;5012886;28;20696;-75
2022/09/05 09:41:25;;;;;;;0.00;0.00;;;23.20;99.90;226.50;231333.00;;;;5012277;28;20242;-71
2022/09/05 09:44:52;;;;;;;0.00;0.00;;;23.30;99.90;226.50;231333.00;;;;4993072;28;20202;-74
2022/09/05 09:47:54;;;;;;;0.00;0.00;;;23.40;99.90;226.50;231333.00;;;;4964021;28;20220;-75
2022/09/05 09:50:50;;;;;;;0.00;0.00;;;23.50;99.90;226.50;231333.00;;;;5005953;28;20246;-76
2022/09/05 09:53:48;;;;;;;0.00;0.00;;;23.60;99.90;226.50;231333.00;;;;5002258;28;20196;-75
2022/09/05 09:57:08;;;;;;;0.00;0.00;;;23.70;99.90;226.50;231333.00;;;;5004587;28;20188;-78
2022/09/05 10:00:09;;;;;;;0.00;0.00;;;23.70;99.90;226.50;231333.00;;;;4993165;28;20208;-73
2022/09/05 10:03:20;;;;;;;0.00;0.00;;;23.60;99.90;226.50;231333.00;;;;5012248;28;20199;-74
2022/09/05 10:06:54;;;;;;;0.00;0.00;;;23.60;99.90;226.50;231333.00;;;;5011888;28;20199;-77
2022/09/05 10:10:15;;;;;;;0.00;0.00;;;23.90;99.90;226.50;231333.00;;;;5008254;28;20199;-75
2022/09/05 10:13:27;;;;;;;0.00;0.00;;;23.90;99.90;226.50;231333.00;;;;4990647;28;20262;-75
2022/09/05 10:16:42;;;;;;;0.00;0.00;;;23.90;99.90;226.50;231333.00;;;;4993892;28;20275;-74
2022/09/05 10:19:57;;;;;;;0.00;0.00;;;24.00;99.90;226.50;231333.00;;;;4991268;28;20211;-76
2022/09/05 10:23:29;;;;;;;0.00;0.00;;;24.00;99.90;226.50;231333.00;;;;4992906;28;20199;-74
2022/09/05 10:26:38;;;;;;;0.00;0.00;;;24.10;99.90;226.50;231333.00;;;;4992415;28;20667;-75
2022/09/05 10:29:19;;;;;;;0.00;0.00;;;24.10;99.90;226.50;231333.00;;;;4991780;28;20188;-74
2022/09/05 10:32:12;;;;;;;0.00;0.00;;;24.10;99.90;226.50;231333.00;;;;4992164;28;20255;-73
2022/09/05 10:35:19;;;;;;;0.00;0.00;;;24.30;99.90;226.50;231333.00;;;;4990147;28;20664;-73
2022/09/05 10:38:02;;;;;;;0.00;0.00;;;24.50;99.90;226.50;231333.00;;;;4991587;28;20199;-73
2022/09/05 10:40:44;;;;;;;0.00;0.00;;;24.70;99.90;226.50;231333.00;;;;4957932;28;994929;-74
2022/09/05 10:43:43;;;;;;;0.00;0.00;;;24.80;99.90;226.50;231333.00;;;;4990894;28;20200;-74
2022/09/05 10:46:27;;;;;;;0.00;0.00;;;24.90;99.90;226.50;231333.00;;;;4991181;28;20204;-74
2022/09/05 10:49:21;;;;;;;0.00;0.00;;;25.10;99.90;226.50;231333.00;;;;4992129;28;20196;-74
2022/09/05 10:52:05;;;;;;;0.00;0.00;;;25.20;99.90;226.50;231333.00;;;;4992481;28;20247;-74
2022/09/05 10:55:17;;;;;;;0.00;0.00;;;25.30;99.90;226.50;231333.00;;;;4992838;28;20275;-73
2022/09/05 10:58:14;;;;;;;0.00;0.00;;;25.20;99.90;226.50;231333.00;;;;4989922;28;20204;-74
2022/09/05 11:01:08;;;;;;;0.00;0.00;;;25.10;99.90;226.50;231333.00;;;;5001991;28;20279;-74
2022/09/05 11:04:19;;;;;;;0.00;0.00;;;25.00;99.90;226.50;231333.00;;;;4992262;28;20196;-74
2022/09/05 11:07:00;;;;;;;0.00;0.00;;;25.00;99.90;226.50;231333.00;;;;4994176;28;20235;-74
2022/09/05 11:09:51;;;;;;;0.00;0.00;;;25.00;99.90;226.50;231333.00;;;;4994168;28;20196;-74
2022/09/05 11:12:43;;;;;;;0.00;0.00;;;25.00;99.90;226.50;231333.00;;;;4990506;28;20212;-74
2022/09/05 11:15:31;;;;;;;0.00;0.00;;;25.10;99.90;226.50;231333.00;;;;4991707;28;20670;-73
2022/09/05 11:18:08;;;;;;;0.00;0.00;;;25.10;99.90;226.50;231333.00;;;;4990752;28;20677;-73
2022/09/05 11:21:03;;;;;;;0.00;0.00;;;25.10;99.90;226.50;231333.00;;;;4991316;28;20218;-73
2022/09/05 11:23:44;;;;;;;0.00;0.00;;;25.20;99.90;226.50;231333.00;;;;4991971;28;20196;-74
2022/09/05 11:26:42;;;;;;;0.00;0.00;;;25.30;99.90;226.50;231333.00;;;;4991423;28;20576;-74
2022/09/05 11:29:22;;;;;;;0.00;0.00;;;25.50;99.90;226.50;231333.00;;;;5011981;28;20204;-73
2022/09/05 11:32:34;;;;;;;0.00;0.00;;;25.70;99.90;226.50;231333.00;;;;5013880;28;20226;-74
2022/09/05 11:35:26;;;;;;;0.00;0.00;;;25.90;99.90;226.50;231333.00;;;;5014788;28;20210;-73
2022/09/05 11:38:54;;;;;;;0.00;0.00;;;25.90;99.90;226.50;231333.00;;;;5011018;28;20269;-73
2022/09/05 11:42:23;;;;;;;0.00;0.00;;;26.00;99.90;226.50;231333.00;;;;5049953;23;20231;-74
2022/09/05 11:45:54;;;;;;;0.00;0.00;;;26.10;99.90;226.50;231333.00;;;;5009822;28;20204;-74
2022/09/05 11:49:02;;;;;;;0.00;0.00;;;26.10;99.90;226.50;231333.00;;;;4979607;28;20250;-73
2022/09/05 11:52:20;;;;;;;0.00;0.00;;;26.20;99.90;226.50;231333.00;;;;5006481;28;20866;-74
2022/09/05 11:55:51;;;;;;;0.00;0.00;;;26.20;99.90;226.50;231333.00;;;;5009079;28;20215;-74
2022/09/05 11:58:54;;;;;;;0.00;0.00;;;26.20;99.90;226.50;231333.00;;;;5013088;28;20296;-74
2022/09/05 12:01:39;;;;;;;0.00;0.00;;;26.10;99.90;226.50;231333.00;;;;5000153;28;20227;-74
2022/09/05 12:04:40;;;;;;;0.00;0.00;;;26.10;99.90;226.50;231333.00;;;;4995895;28;20282;-73
2022/09/05 12:07:41;;;;;;;0.00;0.00;;;26.10;99.90;226.50;231333.00;;;;4995740;28;20280;-74
2022/09/05 12:10:28;;;;;;;0.00;0.00;;;26.10;99.90;226.50;231333.00;;;;4995742;28;20216;-74
2022/09/05 12:13:44;;;;;;;0.00;0.00;;;26.10;99.90;226.50;231333.00;;;;5010347;28;20203;-74
2022/09/05 12:16:40;;;;;;;0.00;0.00;;;26.00;99.90;226.50;231333.00;;;;5010866;28;20235;-73
2022/09/05 12:19:26;;;;;;;0.00;0.00;;;26.10;99.90;226.50;231333.00;;;;5014987;28;20219;-74
2022/09/05 12:22:29;;;;;;;0.00;0.00;;;26.10;99.90;226.50;231333.00;;;;5014778;28;20238;-74
2022/09/05 12:25:21;;;;;;;0.00;0.00;;;26.10;99.90;226.50;231333.00;;;;5012641;28;20681;-74
2022/09/05 12:28:18;;;;;;;0.00;0.00;;;26.10;99.90;226.50;231333.00;;;;5009922;28;20206;-74
2022/09/05 12:31:19;;;;;;;0.00;0.00;;;26.10;99.90;226.50;231333.00;;;;5011654;28;20223;-74
2022/09/05 12:34:17;;;;;;;0.00;0.00;;;26.20;99.90;226.50;231333.00;;;;5006393;28;20191;-74
2022/09/05 12:37:12;;;;;;;0.00;0.00;;;26.20;99.90;226.50;231333.00;;;;4995271;28;20255;-73
2022/09/05 12:40:12;;;;;;;0.00;0.00;;;26.20;99.90;226.50;231333.00;;;;4991880;28;20197;-75
2022/09/05 12:43:08;;;;;;;0.00;0.00;;;26.30;99.90;226.50;231333.00;;;;4992126;28;20232;-73
2022/09/05 12:46:03;;;;;;;0.00;0.00;;;26.30;99.90;226.50;231333.00;;;;5011116;28;20223;-74